createdAt,value
2023-02-13T00:00:05.936Z,100355.75
2023-02-13T00:02:10.730Z,100353.88
2023-02-13T00:04:15.553Z,100358.09
2023-02-13T00:06:20.329Z,100358.06
2023-02-13T00:08:25.267Z,100354.56
2023-02-13T00:10:30.524Z,100352.69
2023-02-13T00:12:35.467Z,100353.47
2023-02-13T00:14:43.635Z,100347.44
2023-02-13T00:16:48.498Z,100348.31
2023-02-13T00:18:55.967Z,100342.25
2023-02-13T00:21:02.802Z,100345.59
2023-02-13T00:23:07.671Z,100345.50
2023-02-13T00:25:12.571Z,100346.34
2023-02-13T00:27:17.416Z,100350.59
2023-02-13T00:29:22.604Z,100341.97
2023-02-13T00:31:29.846Z,100345.38
2023-02-13T00:33:34.985Z,100339.34
2023-02-13T00:35:39.856Z,100339.34
2023-02-13T00:37:44.665Z,100343.66
2023-02-13T00:39:49.442Z,100347.13
2023-02-13T00:41:55.545Z,100351.41
2023-02-13T00:44:00.458Z,100347.16
2023-02-13T00:46:05.991Z,100344.66
2023-02-13T00:48:13.431Z,100353.19
2023-02-13T00:50:18.603Z,100349.59
2023-02-13T00:52:23.406Z,100339.13
2023-02-13T00:54:28.400Z,100340.59
2023-02-13T00:56:33.314Z,100337.06
2023-02-13T00:58:38.282Z,100341.25
2023-02-13T01:00:43.102Z,100332.56
2023-02-13T01:02:48.060Z,100345.41
2023-02-13T01:04:55.544Z,100337.63
2023-02-13T01:07:00.711Z,100333.34
2023-02-13T01:09:05.605Z,100337.56
2023-02-13T01:11:10.604Z,100337.50
2023-02-13T01:13:15.911Z,100333.19
2023-02-13T01:15:20.963Z,100329.72
2023-02-13T01:17:26.663Z,100329.50
2023-02-13T01:19:34.702Z,100330.28
2023-02-13T01:21:42.232Z,100324.16
2023-02-13T01:23:47.463Z,100329.16
2023-02-13T01:25:52.063Z,100323.09
2023-02-13T01:27:59.609Z,100322.91
2023-02-13T01:30:04.573Z,100325.41
2023-02-13T01:32:09.479Z,100319.31
2023-02-13T01:34:14.340Z,100317.56
2023-02-13T01:36:19.767Z,100329.53
2023-02-13T01:38:27.235Z,100323.47
2023-02-13T01:40:32.370Z,100316.53
2023-02-13T01:42:38.874Z,100315.63
2023-02-13T01:44:55.280Z,100318.22
2023-02-13T01:47:00.156Z,100317.34
2023-02-13T01:49:12.186Z,100313.06
2023-02-13T01:51:21.309Z,100312.16
2023-02-13T01:53:32.816Z,100317.28
2023-02-13T01:55:40.621Z,100319.72
2023-02-13T01:57:49.801Z,100317.03
2023-02-13T02:00:00.143Z,100312.69
2023-02-13T02:02:06.608Z,100308.34
2023-02-13T02:04:16.355Z,100311.88
2023-02-13T02:06:28.780Z,100307.53
2023-02-13T02:08:37.994Z,100316.13
2023-02-13T02:10:45.962Z,100318.63
2023-02-13T02:12:55.308Z,100309.13
2023-02-13T02:15:03.246Z,100308.94
2023-02-13T02:17:10.918Z,100308.81
2023-02-13T02:19:25.442Z,100307.03
2023-02-13T02:21:57.924Z,100305.31
2023-02-13T02:24:50.683Z,100308.63
2023-02-13T02:27:12.715Z,100310.13
2023-02-13T02:29:52.472Z,100296.53
2023-02-13T02:32:31.545Z,100305.25
2023-02-13T02:34:44.208Z,100298.50
2023-02-13T02:37:08.033Z,100299.38
2023-02-13T02:39:22.642Z,100304.53
2023-02-13T02:41:45.219Z,100301.88
2023-02-13T02:44:02.140Z,100307.69
2023-02-13T02:46:14.253Z,100310.97
2023-02-13T02:48:41.534Z,100316.06
2023-02-13T02:50:51.754Z,100321.13
2023-02-13T02:53:07.522Z,100310.03
2023-02-13T02:55:27.340Z,100313.44
2023-02-13T02:57:47.721Z,100304.75
2023-02-13T03:00:08.342Z,100302.16
2023-02-13T03:02:27.505Z,100303.06
2023-02-13T03:04:51.730Z,100306.50
2023-02-13T03:07:01.800Z,100306.50
2023-02-13T03:09:22.953Z,100308.19
2023-02-13T03:11:40.342Z,100305.50
2023-02-13T03:13:49.788Z,100306.31
2023-02-13T03:16:22.014Z,100311.44
2023-02-13T03:18:39.605Z,100311.28
2023-02-13T03:21:06.245Z,100314.50
2023-02-13T03:23:16.976Z,100319.59
2023-02-13T03:25:34.577Z,100315.38
2023-02-13T03:28:01.321Z,100316.28
2023-02-13T03:30:16.594Z,100313.78
2023-02-13T03:32:29.560Z,100312.94
2023-02-13T03:34:50.905Z,100320.63
2023-02-13T03:37:16.919Z,100312.94
2023-02-13T03:39:27.069Z,100316.38
2023-02-13T03:41:37.792Z,100315.44
2023-02-13T03:43:48.133Z,100324.69
2023-02-13T03:45:54.284Z,100326.34
2023-02-13T03:48:09.674Z,100323.56
2023-02-13T03:50:14.285Z,100333.69
2023-02-13T03:52:27.450Z,100327.75
2023-02-13T03:54:51.204Z,100333.78
2023-02-13T03:57:10.815Z,100327.78
2023-02-13T03:59:25.192Z,100332.88
2023-02-13T04:01:33.580Z,100321.69
2023-02-13T04:03:43.482Z,100328.03
2023-02-13T04:05:52.764Z,100333.81
2023-02-13T04:08:02.971Z,100334.81
2023-02-13T04:10:13.568Z,100333.16
2023-02-13T04:12:22.396Z,100342.44
2023-02-13T04:14:30.676Z,100337.38
2023-02-13T04:16:39.866Z,100337.44
2023-02-13T04:18:46.056Z,100339.28
2023-02-13T04:20:51.113Z,100341.75
2023-02-13T04:22:56.034Z,100336.59
2023-02-13T04:25:03.938Z,100326.25
2023-02-13T04:27:08.780Z,100331.41
2023-02-13T04:29:13.644Z,100333.94
2023-02-13T04:31:18.698Z,100332.16
2023-02-13T04:33:23.763Z,100329.53
2023-02-13T04:35:28.997Z,100330.34
2023-02-13T04:37:33.890Z,100336.38
2023-02-13T04:39:38.653Z,100332.84
2023-02-13T04:41:46.123Z,100332.88
2023-02-13T04:43:52.557Z,100339.63
2023-02-13T04:45:59.441Z,100335.34
2023-02-13T04:48:04.200Z,100332.84
2023-02-13T04:50:10.211Z,100334.59
2023-02-13T04:52:15.380Z,100331.91
2023-02-13T04:54:19.934Z,100319.88
2023-02-13T04:56:24.731Z,100321.31
2023-02-13T04:58:32.191Z,100324.69
2023-02-13T05:00:37.748Z,100331.50
2023-02-13T05:02:45.536Z,100324.53
2023-02-13T05:04:50.498Z,100323.66
2023-02-13T05:06:55.397Z,100334.88
2023-02-13T05:09:00.264Z,100332.94
2023-02-13T05:11:05.452Z,100335.75
2023-02-13T05:13:10.056Z,100331.50
2023-02-13T05:15:17.554Z,100335.81
2023-02-13T05:17:22.397Z,100339.25
2023-02-13T05:19:27.345Z,100335.91
2023-02-13T05:21:44.704Z,100333.16
2023-02-13T05:23:49.619Z,100339.88
2023-02-13T05:25:56.366Z,100347.31
2023-02-13T05:28:01.658Z,100340.53
2023-02-13T05:30:03.809Z,100357.22
2023-02-13T05:32:11.279Z,100361.59
2023-02-13T05:34:16.195Z,100368.59
2023-02-13T05:36:21.117Z,100352.50
2023-02-13T05:38:25.988Z,100354.31
2023-02-13T05:40:30.995Z,100358.63
2023-02-13T05:42:35.830Z,100360.38
2023-02-13T05:44:40.815Z,100356.94
2023-02-13T05:46:46.311Z,100357.84
2023-02-13T05:48:56.458Z,100366.47
2023-02-13T05:51:01.498Z,100369.78
2023-02-13T05:53:06.386Z,100370.56
2023-02-13T05:55:11.502Z,100366.19
2023-02-13T05:57:16.109Z,100374.59
2023-02-13T05:59:23.709Z,100372.78
2023-02-13T06:01:28.911Z,100374.41
2023-02-13T06:03:34.661Z,100375.34
2023-02-13T06:05:42.188Z,100383.81
2023-02-13T06:07:47.044Z,100379.47
2023-02-13T06:09:51.931Z,100383.69
2023-02-13T06:11:56.700Z,100385.44
2023-02-13T06:14:01.555Z,100389.78
2023-02-13T06:16:06.633Z,100379.56
2023-02-13T06:18:11.577Z,100392.34
2023-02-13T06:20:16.494Z,100389.31
2023-02-13T06:22:23.986Z,100392.59
2023-02-13T06:24:28.879Z,100382.38
2023-02-13T06:26:33.718Z,100386.88
2023-02-13T06:28:38.703Z,100387.75
2023-02-13T06:30:43.538Z,100394.84
2023-02-13T06:32:50.284Z,100401.00
2023-02-13T06:34:55.131Z,100402.00
2023-02-13T06:37:00.109Z,100394.44
2023-02-13T06:39:07.697Z,100394.44
2023-02-13T06:41:12.702Z,100392.78
2023-02-13T06:43:18.042Z,100399.63
2023-02-13T06:45:22.889Z,100401.25
2023-02-13T06:47:28.099Z,100391.94
2023-02-13T06:49:32.610Z,100402.88
2023-02-13T06:51:37.436Z,100404.66
2023-02-13T06:53:42.239Z,100406.59
2023-02-13T06:55:56.497Z,100413.59
2023-02-13T06:58:02.583Z,100412.69
2023-02-13T07:00:13.369Z,100411.00
2023-02-13T07:02:18.601Z,100414.53
2023-02-13T07:04:26.408Z,100414.69
2023-02-13T07:06:32.989Z,100413.75
2023-02-13T07:08:38.477Z,100421.25
2023-02-13T07:10:44.465Z,100433.84
2023-02-13T07:13:05.447Z,100430.94
2023-02-13T07:15:11.764Z,100436.97
2023-02-13T07:17:16.971Z,100437.16
2023-02-13T07:19:21.679Z,100434.88
2023-02-13T07:21:26.583Z,100442.84
2023-02-13T07:23:31.422Z,100440.59
2023-02-13T07:25:37.605Z,100441.78
2023-02-13T07:27:42.610Z,100431.03
2023-02-13T07:29:50.219Z,100429.59
2023-02-13T07:31:55.652Z,100431.22
2023-02-13T07:34:00.598Z,100432.06
2023-02-13T07:36:05.714Z,100433.78
2023-02-13T07:38:13.214Z,100426.94
2023-02-13T07:40:18.112Z,100428.81
2023-02-13T07:42:23.042Z,100430.50
2023-02-13T07:44:27.901Z,100430.31
2023-02-13T07:46:35.405Z,100430.44
2023-02-13T07:48:40.325Z,100436.78
2023-02-13T07:50:45.228Z,100429.03
2023-02-13T07:52:56.408Z,100437.75
2023-02-13T07:55:01.294Z,100436.97
2023-02-13T07:57:07.444Z,100435.44
2023-02-13T07:59:13.933Z,100439.81
2023-02-13T08:01:20.447Z,100439.97
2023-02-13T08:03:27.922Z,100439.88
2023-02-13T08:05:35.097Z,100435.19
2023-02-13T08:07:40.469Z,100438.47
2023-02-13T08:10:00.091Z,100445.19
2023-02-13T08:12:05.057Z,100438.38
2023-02-13T08:14:09.853Z,100437.91
2023-02-13T08:16:15.118Z,100441.44
2023-02-13T08:18:20.310Z,100438.31
2023-02-13T08:20:27.882Z,100436.16
2023-02-13T08:22:32.755Z,100430.47
2023-02-13T08:24:37.629Z,100431.50
2023-02-13T08:26:43.534Z,100428.22
2023-02-13T08:28:48.413Z,100430.16
2023-02-13T08:30:55.548Z,100432.84
2023-02-13T08:33:00.468Z,100428.81
2023-02-13T08:35:05.326Z,100425.53
2023-02-13T08:37:12.785Z,100414.47
2023-02-13T08:39:17.580Z,100420.50
2023-02-13T08:41:23.242Z,100415.31
2023-02-13T08:43:28.150Z,100421.38
2023-02-13T08:45:33.456Z,100426.53
2023-02-13T08:47:38.044Z,100424.09
2023-02-13T08:49:43.144Z,100419.53
2023-02-13T08:51:48.032Z,100435.78
2023-02-13T08:53:55.632Z,100433.25
2023-02-13T08:56:01.171Z,100428.50
2023-02-13T08:58:07.092Z,100427.06
2023-02-13T09:00:13.259Z,100425.50
2023-02-13T09:02:18.114Z,100426.56
2023-02-13T09:04:23.354Z,100427.72
2023-02-13T09:06:28.565Z,100424.75
2023-02-13T09:08:33.885Z,100421.97
2023-02-13T09:10:43.795Z,100425.41
2023-02-13T09:12:55.551Z,100429.63
2023-02-13T09:15:00.370Z,100425.69
2023-02-13T09:17:05.207Z,100424.34
2023-02-13T09:19:10.338Z,100415.84
2023-02-13T09:21:16.161Z,100418.97
2023-02-13T09:23:21.060Z,100418.09
2023-02-13T09:25:26.310Z,100422.50
2023-02-13T09:27:34.832Z,100414.41
2023-02-13T09:29:39.753Z,100417.34
2023-02-13T09:31:44.738Z,100415.03
2023-02-13T09:33:51.215Z,100414.91
2023-02-13T09:35:56.545Z,100413.13
2023-02-13T09:38:03.860Z,100412.00
2023-02-13T09:40:19.009Z,100415.47
2023-02-13T09:42:27.001Z,100415.09
2023-02-13T09:44:43.531Z,100425.41
2023-02-13T09:46:49.069Z,100416.69
2023-02-13T09:49:00.130Z,100423.72
2023-02-13T09:51:05.061Z,100421.97
2023-02-13T09:53:10.062Z,100424.53
2023-02-13T09:55:19.994Z,100429.06
2023-02-13T09:57:31.480Z,100426.50
2023-02-13T09:59:48.617Z,100429.94
2023-02-13T10:01:57.997Z,100426.25
2023-02-13T10:04:25.855Z,100426.50
2023-02-13T10:06:34.512Z,100430.22
2023-02-13T10:09:02.279Z,100425.38
2023-02-13T10:11:18.094Z,100418.69
2023-02-13T10:13:35.352Z,100422.31
2023-02-13T10:15:51.771Z,100416.34
2023-02-13T10:18:02.127Z,100408.47
2023-02-13T10:20:11.490Z,100422.50
2023-02-13T10:22:19.845Z,100421.47
2023-02-13T10:24:34.579Z,100418.78
2023-02-13T10:26:46.580Z,100425.00
2023-02-13T10:29:10.865Z,100427.94
2023-02-13T10:31:22.447Z,100424.09
2023-02-13T10:33:32.131Z,100414.00
2023-02-13T10:35:37.861Z,100417.59
2023-02-13T10:37:42.835Z,100413.44
2023-02-13T10:39:49.633Z,100408.13
2023-02-13T10:41:58.076Z,100418.59
2023-02-13T10:44:18.993Z,100419.47
2023-02-13T10:46:39.289Z,100415.47
2023-02-13T10:49:07.261Z,100412.13
2023-02-13T10:51:18.468Z,100418.09
2023-02-13T10:53:35.173Z,100415.25
2023-02-13T10:56:24.733Z,100412.53
2023-02-13T10:58:41.795Z,100421.91
2023-02-13T11:00:57.156Z,100420.63
2023-02-13T11:03:04.970Z,100420.78
2023-02-13T11:05:19.641Z,100415.66
2023-02-13T11:07:27.963Z,100420.00
2023-02-13T11:09:39.798Z,100415.72
2023-02-13T11:11:46.273Z,100411.44
2023-02-13T11:14:10.841Z,100414.91
2023-02-13T11:16:15.910Z,100405.56
2023-02-13T11:18:26.512Z,100405.59
2023-02-13T11:20:40.041Z,100407.72
2023-02-13T11:22:45.930Z,100406.03
2023-02-13T11:24:56.448Z,100404.59
2023-02-13T11:27:09.085Z,100397.06
2023-02-13T11:29:21.424Z,100388.41
2023-02-13T11:31:29.847Z,100390.16
2023-02-13T11:33:37.357Z,100389.47
2023-02-13T11:35:42.474Z,100389.56
2023-02-13T11:37:47.069Z,100386.16
2023-02-13T11:39:56.839Z,100381.19
2023-02-13T11:42:02.565Z,100375.28
2023-02-13T11:44:08.301Z,100376.22
2023-02-13T11:46:20.604Z,100377.16
2023-02-13T11:48:25.777Z,100377.22
2023-02-13T11:50:35.303Z,100372.75
2023-02-13T11:52:40.389Z,100372.91
2023-02-13T11:54:47.249Z,100377.09
2023-02-13T11:57:05.800Z,100370.94
2023-02-13T11:59:16.761Z,100373.72
2023-02-13T12:01:31.152Z,100371.25
2023-02-13T12:03:36.278Z,100366.94
2023-02-13T12:05:43.715Z,100368.00
2023-02-13T12:07:49.780Z,100362.91
2023-02-13T12:10:01.906Z,100359.50
2023-02-13T12:12:08.661Z,100354.50
2023-02-13T12:14:17.223Z,100357.22
2023-02-13T12:16:34.140Z,100353.03
2023-02-13T12:18:43.120Z,100341.00
2023-02-13T12:20:59.963Z,100333.28
2023-02-13T12:23:10.505Z,100333.34
2023-02-13T12:25:30.504Z,100322.19
2023-02-13T12:27:43.844Z,100315.31
2023-02-13T12:30:09.389Z,100313.63
2023-02-13T12:32:21.476Z,100317.13
2023-02-13T12:34:51.658Z,100308.59
2023-02-13T12:37:14.949Z,100305.13
2023-02-13T12:39:28.813Z,100298.28
2023-02-13T12:41:41.867Z,100296.59
2023-02-13T12:44:08.703Z,100289.66
2023-02-13T12:46:21.603Z,100284.50
2023-02-13T12:48:37.389Z,100282.84
2023-02-13T12:51:02.582Z,100283.78
2023-02-13T12:53:20.937Z,100268.28
2023-02-13T12:55:46.890Z,100271.75
2023-02-13T12:58:05.540Z,100270.88
2023-02-13T13:00:24.968Z,100267.47
2023-02-13T13:02:50.550Z,100259.69
2023-02-13T13:05:13.612Z,100253.69
2023-02-13T13:07:45.585Z,100257.16
2023-02-13T13:10:06.350Z,100247.66
2023-02-13T13:12:21.378Z,100246.78
2023-02-13T13:14:32.220Z,100246.81
2023-02-13T13:16:48.486Z,100245.06
2023-02-13T13:19:04.955Z,100245.94
2023-02-13T13:21:23.331Z,100241.59
2023-02-13T13:23:34.136Z,100241.63
2023-02-13T13:25:50.242Z,100239.00
2023-02-13T13:28:00.722Z,100236.41
2023-02-13T13:30:08.947Z,100228.63
2023-02-13T13:32:19.538Z,100226.91
2023-02-13T13:34:27.643Z,100232.09
2023-02-13T13:36:41.909Z,100233.84
2023-02-13T13:38:56.920Z,100234.69
2023-02-13T13:41:12.144Z,100227.78
2023-02-13T13:43:30.190Z,100229.50
2023-02-13T13:45:46.797Z,100225.19
2023-02-13T13:48:09.997Z,100225.19
2023-02-13T13:50:24.167Z,100220.84
2023-02-13T13:52:31.121Z,100216.53
2023-02-13T13:54:38.639Z,100214.78
2023-02-13T13:57:22.285Z,100206.16
2023-02-13T13:59:57.348Z,100207.84
2023-02-13T14:02:32.288Z,100199.22
2023-02-13T14:04:43.829Z,100197.50
2023-02-13T14:07:27.008Z,100191.44
2023-02-13T14:09:43.216Z,100200.09
2023-02-13T14:11:48.552Z,100201.81
2023-02-13T14:13:55.732Z,100202.69
2023-02-13T14:16:00.744Z,100208.75
2023-02-13T14:18:11.465Z,100197.47
2023-02-13T14:20:26.369Z,100200.06
2023-02-13T14:22:39.529Z,100202.72
2023-02-13T14:24:44.885Z,100191.44
2023-02-13T14:27:05.337Z,100185.41
2023-02-13T14:29:35.947Z,100196.63
2023-02-13T14:31:43.913Z,100205.25
2023-02-13T14:33:49.622Z,100198.34
2023-02-13T14:36:07.299Z,100198.34
2023-02-13T14:38:26.900Z,100199.19
2023-02-13T14:40:44.883Z,100195.72
2023-02-13T14:42:54.046Z,100196.56
2023-02-13T14:45:00.937Z,100199.16
2023-02-13T14:47:09.312Z,100195.69
2023-02-13T14:49:20.329Z,100195.69
2023-02-13T14:51:33.337Z,100192.22
2023-02-13T14:53:56.254Z,100198.28
2023-02-13T14:56:05.882Z,100193.97
2023-02-13T14:58:15.807Z,100187.91
2023-02-13T15:00:27.967Z,100198.25
2023-02-13T15:02:38.352Z,100190.47
2023-02-13T15:04:46.440Z,100189.59
2023-02-13T15:06:56.467Z,100181.81
2023-02-13T15:09:05.019Z,100183.56
2023-02-13T15:11:30.530Z,100182.66
2023-02-13T15:13:37.514Z,100174.84
2023-02-13T15:15:44.574Z,100178.34
2023-02-13T15:17:49.889Z,100177.50
2023-02-13T15:19:55.677Z,100180.13
2023-02-13T15:22:07.178Z,100176.66
2023-02-13T15:24:17.346Z,100180.09
2023-02-13T15:26:27.540Z,100175.78
2023-02-13T15:28:33.101Z,100176.66
2023-02-13T15:30:41.183Z,100183.56
2023-02-13T15:32:46.137Z,100176.66
2023-02-13T15:34:51.535Z,100179.25
2023-02-13T15:36:57.064Z,100177.53
2023-02-13T15:39:10.427Z,100174.91
2023-02-13T15:41:21.736Z,100180.97
2023-02-13T15:43:34.740Z,100185.31
2023-02-13T15:45:39.593Z,100184.50
2023-02-13T15:47:46.968Z,100182.75
2023-02-13T15:49:52.751Z,100177.56
2023-02-13T15:52:10.296Z,100175.84
2023-02-13T15:54:30.994Z,100183.63
2023-02-13T15:56:37.414Z,100181.06
2023-02-13T15:58:42.379Z,100184.53
2023-02-13T16:00:47.668Z,100182.78
2023-02-13T16:02:55.439Z,100180.19
2023-02-13T16:05:01.385Z,100177.59
2023-02-13T16:07:06.225Z,100177.59
2023-02-13T16:09:30.835Z,100175.84
2023-02-13T16:11:40.274Z,100182.81
2023-02-13T16:14:01.872Z,100177.63
2023-02-13T16:16:12.576Z,100184.53
2023-02-13T16:18:22.492Z,100183.66
2023-02-13T16:20:29.867Z,100181.97
2023-02-13T16:22:38.414Z,100187.13
2023-02-13T16:24:50.930Z,100185.41
2023-02-13T16:26:56.417Z,100194.06
2023-02-13T16:29:01.459Z,100194.06
2023-02-13T16:31:08.524Z,100188.91
2023-02-13T16:33:30.671Z,100186.28
2023-02-13T16:35:40.862Z,100198.38
2023-02-13T16:37:55.484Z,100200.13
2023-02-13T16:40:34.832Z,100202.72
2023-02-13T16:42:39.788Z,100203.56
2023-02-13T16:44:44.658Z,100212.22
2023-02-13T16:46:55.318Z,100209.63
2023-02-13T16:49:18.852Z,100200.97
2023-02-13T16:51:28.585Z,100213.06
2023-02-13T16:53:34.332Z,100209.59
2023-02-13T16:55:41.912Z,100207.00
2023-02-13T16:57:47.460Z,100225.16
2023-02-13T17:00:04.432Z,100222.53
2023-02-13T17:02:23.975Z,100223.41
2023-02-13T17:04:30.406Z,100220.78
2023-02-13T17:06:35.272Z,100222.50
2023-02-13T17:08:40.125Z,100225.94
2023-02-13T17:11:04.767Z,100225.94
2023-02-13T17:13:17.871Z,100224.19
2023-02-13T17:15:25.171Z,100231.97
2023-02-13T17:17:32.121Z,100231.09
2023-02-13T17:19:36.895Z,100231.91
2023-02-13T17:21:42.716Z,100243.16
2023-02-13T17:23:50.726Z,100240.53
2023-02-13T17:26:00.359Z,100231.91
2023-02-13T17:28:18.955Z,100240.53
2023-02-13T17:30:30.981Z,100237.91
2023-02-13T17:32:39.900Z,100241.34
2023-02-13T17:34:49.282Z,100243.06
2023-02-13T17:36:56.065Z,100247.38
2023-02-13T17:39:00.974Z,100247.31
2023-02-13T17:41:08.740Z,100245.59
2023-02-13T17:43:18.170Z,100238.69
2023-02-13T17:45:28.789Z,100238.69
2023-02-13T17:47:33.653Z,100241.25
2023-02-13T17:49:38.437Z,100243.84
2023-02-13T17:51:46.019Z,100244.72
2023-02-13T17:53:51.131Z,100247.28
2023-02-13T17:55:57.095Z,100250.72
2023-02-13T17:58:05.068Z,100248.09
2023-02-13T18:00:11.667Z,100245.47
2023-02-13T18:02:22.229Z,100242.91
2023-02-13T18:04:27.653Z,100249.75
2023-02-13T18:06:32.515Z,100255.75
2023-02-13T18:08:37.338Z,100248.84
2023-02-13T18:10:42.522Z,100262.59
2023-02-13T18:12:48.592Z,100264.34
2023-02-13T18:14:56.390Z,100264.28
2023-02-13T18:17:01.280Z,100270.34
2023-02-13T18:19:06.111Z,100266.00
2023-02-13T18:21:12.680Z,100270.25
2023-02-13T18:23:18.406Z,100267.69
2023-02-13T18:25:24.293Z,100275.38
2023-02-13T18:27:29.205Z,100271.09
2023-02-13T18:29:36.335Z,100264.16
2023-02-13T18:31:45.303Z,100267.56
2023-02-13T18:33:50.428Z,100267.50
2023-02-13T18:36:00.611Z,100265.75
2023-02-13T18:38:07.812Z,100263.97
2023-02-13T18:40:15.141Z,100266.50
2023-02-13T18:42:19.978Z,100266.47
2023-02-13T18:44:28.891Z,100262.97
2023-02-13T18:46:34.068Z,100270.75
2023-02-13T18:48:43.763Z,100275.00
2023-02-13T18:50:48.664Z,100273.25
2023-02-13T18:52:56.042Z,100281.78
2023-02-13T18:55:03.577Z,100282.63
2023-02-13T18:57:15.503Z,100275.66
2023-02-13T18:59:23.700Z,100285.00
2023-02-13T19:01:28.550Z,100278.91
2023-02-13T19:03:33.448Z,100283.09
2023-02-13T19:05:43.169Z,100277.03
2023-02-13T19:07:48.042Z,100288.16
2023-02-13T19:10:04.566Z,100288.97
2023-02-13T19:12:11.623Z,100289.81
2023-02-13T19:14:19.254Z,100293.22
2023-02-13T19:16:28.531Z,100287.16
2023-02-13T19:18:33.403Z,100285.38
2023-02-13T19:20:41.416Z,100296.47
2023-02-13T19:22:46.302Z,100296.41
2023-02-13T19:24:51.242Z,100299.78
2023-02-13T19:26:56.328Z,100298.81
2023-02-13T19:29:04.081Z,100291.03
2023-02-13T19:31:13.840Z,100298.72
2023-02-13T19:33:21.099Z,100296.94
2023-02-13T19:35:26.810Z,100296.91
2023-02-13T19:37:43.702Z,100298.53
2023-02-13T19:39:56.150Z,100305.31
2023-02-13T19:42:01.058Z,100308.72
2023-02-13T19:44:06.116Z,100308.63
2023-02-13T19:46:14.205Z,100320.63
2023-02-13T19:48:20.339Z,100323.91
2023-02-13T19:50:25.248Z,100323.72
2023-02-13T19:52:32.789Z,100324.53
2023-02-13T19:54:40.620Z,100325.25
2023-02-13T19:56:45.509Z,100330.34
2023-02-13T19:58:50.405Z,100332.81
2023-02-13T20:00:55.396Z,100338.78
2023-02-13T20:03:03.980Z,100345.44
2023-02-13T20:05:09.726Z,100347.09
2023-02-13T20:07:14.665Z,100348.78
2023-02-13T20:09:19.753Z,100341.09
2023-02-13T20:11:27.113Z,100338.53
2023-02-13T20:13:32.154Z,100337.72
2023-02-13T20:15:36.952Z,100333.47
2023-02-13T20:17:41.819Z,100336.16
2023-02-13T20:19:47.723Z,100336.97
2023-02-13T20:21:55.230Z,100330.22
2023-02-13T20:24:00.111Z,100324.34
2023-02-13T20:26:09.089Z,100318.41
2023-02-13T20:28:16.535Z,100321.03
2023-02-13T20:30:22.550Z,100310.72
2023-02-13T20:32:27.366Z,100311.66
2023-02-13T20:34:44.152Z,100308.31
2023-02-13T20:36:57.404Z,100317.84
2023-02-13T20:39:05.479Z,100316.22
2023-02-13T20:41:11.579Z,100315.50
2023-02-13T20:43:23.476Z,100317.22
2023-02-13T20:45:28.415Z,100308.66
2023-02-13T20:47:34.726Z,100309.63
2023-02-13T20:49:41.171Z,100305.41
2023-02-13T20:51:47.686Z,100305.38
2023-02-13T20:53:52.636Z,100294.25
2023-02-13T20:56:05.718Z,100296.84
2023-02-13T20:58:12.796Z,100293.38
2023-02-13T21:00:20.606Z,100290.84
2023-02-13T21:02:28.158Z,100299.47
2023-02-13T21:04:34.333Z,100296.94
2023-02-13T21:06:57.938Z,100301.28
2023-02-13T21:09:03.895Z,100310.81
2023-02-13T21:11:10.713Z,100310.00
2023-02-13T21:13:15.578Z,100304.75
2023-02-13T21:15:23.058Z,100305.66
2023-02-13T21:17:27.921Z,100293.66
2023-02-13T21:19:33.590Z,100301.41
2023-02-13T21:21:44.093Z,100285.97
2023-02-13T21:23:49.270Z,100279.91
2023-02-13T21:25:54.385Z,100279.84
2023-02-13T21:27:59.965Z,100291.09
2023-02-13T21:30:05.007Z,100288.50
2023-02-13T21:32:12.657Z,100277.31
2023-02-13T21:34:19.247Z,100274.69
2023-02-13T21:36:24.096Z,100269.53
2023-02-13T21:38:28.914Z,100270.41
2023-02-13T21:40:33.800Z,100271.22
2023-02-13T21:42:38.733Z,100273.75
2023-02-13T21:44:43.576Z,100273.75
2023-02-13T21:46:50.037Z,100264.38
2023-02-13T21:49:02.509Z,100270.44
2023-02-13T21:51:10.981Z,100269.56
2023-02-13T21:53:15.834Z,100267.84
2023-02-13T21:55:20.865Z,100274.78
2023-02-13T21:57:25.478Z,100268.75
2023-02-13T21:59:30.540Z,100269.56
2023-02-13T22:01:37.576Z,100265.31
2023-02-13T22:03:42.625Z,100275.63
2023-02-13T22:05:51.511Z,100268.75
2023-02-13T22:08:08.808Z,100275.59
2023-02-13T22:10:13.953Z,100279.06
2023-02-13T22:12:18.722Z,100270.50
2023-02-13T22:14:24.405Z,100269.56
2023-02-13T22:16:30.534Z,100273.91
2023-02-13T22:18:36.674Z,100269.66
2023-02-13T22:20:41.642Z,100274.88
2023-02-13T22:22:48.994Z,100270.63
2023-02-13T22:24:53.740Z,100275.75
2023-02-13T22:26:58.580Z,100281.81
2023-02-13T22:29:05.656Z,100274.09
2023-02-13T22:31:11.719Z,100270.66
2023-02-13T22:33:16.607Z,100269.81
2023-02-13T22:35:21.390Z,100268.09
2023-02-13T22:37:26.378Z,100269.81
2023-02-13T22:39:33.911Z,100270.69
2023-02-13T22:41:38.845Z,100276.72
2023-02-13T22:43:45.449Z,100272.47
2023-02-13T22:45:50.358Z,100278.53
2023-02-13T22:47:55.259Z,100275.97
2023-02-13T22:50:00.029Z,100273.44
2023-02-13T22:52:04.966Z,100276.91
2023-02-13T22:54:12.662Z,100277.81
2023-02-13T22:56:20.017Z,100275.25
2023-02-13T22:58:24.851Z,100268.34
2023-02-13T23:00:29.614Z,100266.41
2023-02-13T23:02:34.450Z,100273.16
2023-02-13T23:04:39.505Z,100279.16
2023-02-13T23:06:44.279Z,100270.47
2023-02-13T23:08:52.463Z,100275.59
2023-02-13T23:11:10.393Z,100280.72
2023-02-13T23:13:18.392Z,100274.63
2023-02-13T23:15:23.364Z,100276.34
2023-02-13T23:17:41.048Z,100272.84
2023-02-13T23:19:46.207Z,100264.22
2023-02-13T23:21:51.124Z,100262.47
2023-02-13T23:23:56.413Z,100268.59
2023-02-13T23:26:05.642Z,100266.91
2023-02-13T23:28:10.610Z,100266.88
2023-02-13T23:30:20.766Z,100267.81
2023-02-13T23:32:25.652Z,100267.03
2023-02-13T23:34:30.424Z,100263.59
2023-02-13T23:36:35.329Z,100265.16
2023-02-13T23:38:40.131Z,100258.31
2023-02-13T23:40:45.994Z,100256.56
2023-02-13T23:42:50.828Z,100253.19
2023-02-13T23:44:55.658Z,100254.16
2023-02-13T23:47:03.059Z,100255.97
2023-02-13T23:49:07.867Z,100253.41
2023-02-13T23:51:12.660Z,100253.41
2023-02-13T23:53:17.428Z,100253.41
2023-02-13T23:55:22.391Z,100252.63
2023-02-13T23:57:27.241Z,100257.88
2023-02-13T23:59:32.070Z,100256.94
